Time;durP1;ratioP1;P1;durP2;ratioP2;P2;SDS_P1;SDS_P2;PMS_P1;PMS_P2;Temp;Humidity;BMP_temperature;BMP_pressure;BME280_temperature;BME280_humidity;BME280_pressure;Samples;Min_cycle;Max_cycle;Signal;HPM_P1;HPM_P2
2021/09/22 00:02:16;;;;;;;22.30;9.98;;;;;;;21.46;47.83;101968.94;4416767;32;20495;-69
2021/09/22 00:04:42;;;;;;;25.80;9.85;;;;;;;21.55;47.55;101968.91;4418048;32;20038;-69
2021/09/22 00:07:07;;;;;;;22.42;9.98;;;;;;;21.62;47.41;101971.41;4420047;32;20688;-69
2021/09/22 00:09:33;;;;;;;22.37;10.82;;;;;;;21.59;47.46;101976.03;4419019;32;20077;-69
2021/09/22 00:11:59;;;;;;;22.42;11.93;;;;;;;21.68;47.53;101970.28;4416923;32;20085;-69
2021/09/22 00:14:26;;;;;;;22.05;10.68;;;;;;;21.66;47.37;101967.09;4418590;32;20245;-69
2021/09/22 00:16:51;;;;;;;22.85;11.80;;;;;;;21.76;47.32;101961.34;4415358;32;20689;-68
2021/09/22 00:19:17;;;;;;;23.73;11.23;;;;;;;21.73;47.38;101968.81;4419726;32;20037;-69
2021/09/22 00:21:42;;;;;;;20.33;10.95;;;;;;;21.61;47.78;101962.03;4420152;32;20075;-69
2021/09/22 00:24:08;;;;;;;21.70;10.57;;;;;;;21.69;47.52;101968.97;4415369;32;20077;-69
2021/09/22 00:26:34;;;;;;;23.62;11.57;;;;;;;21.69;47.48;101965.31;4418424;32;20552;-68
2021/09/22 00:28:59;;;;;;;27.48;11.68;;;;;;;21.59;47.62;101956.00;4411504;32;20089;-68
2021/09/22 00:31:26;;;;;;;23.87;12.05;;;;;;;21.69;47.41;101948.94;4416280;32;20418;-69
2021/09/22 00:33:52;;;;;;;27.58;13.35;;;;;;;21.72;47.42;101954.97;4417171;32;20069;-69
2021/09/22 00:36:17;;;;;;;25.95;12.40;;;;;;;21.55;47.80;101951.72;4413963;32;20069;-69
2021/09/22 00:38:43;;;;;;;27.05;13.02;;;;;;;21.59;47.46;101941.66;4418428;32;20049;-69
2021/09/22 00:41:09;;;;;;;24.55;12.55;;;;;;;21.57;47.70;101941.34;4418142;32;20085;-69
2021/09/22 00:43:35;;;;;;;26.35;12.37;;;;;;;21.24;48.59;101951.25;4415782;32;20088;-68
2021/09/22 00:46:04;;;;;;;34.95;14.20;;;;;;;21.46;47.97;101954.63;4417818;32;20037;-69
2021/09/22 00:48:32;;;;;;;26.42;14.68;;;;;;;21.25;48.63;101947.09;4415710;32;20124;-69
2021/09/22 00:50:59;;;;;;;31.33;15.00;;;;;;;21.43;48.56;101944.94;4418489;32;20193;-68
2021/09/22 00:53:25;;;;;;;29.00;14.68;;;;;;;21.49;48.32;101937.28;4419431;32;20500;-69
2021/09/22 00:55:51;;;;;;;31.45;14.63;;;;;;;21.45;48.50;101927.28;4419318;32;20073;-69
2021/09/22 00:58:17;;;;;;;32.00;13.75;;;;;;;21.48;48.58;101932.03;4421693;32;20416;-69
2021/09/22 01:00:43;;;;;;;28.27;14.20;;;;;;;21.44;48.94;101932.19;4418526;32;20041;-69
2021/09/22 01:03:08;;;;;;;27.77;13.45;;;;;;;21.45;48.81;101939.50;4417922;32;20065;-69
2021/09/22 01:05:34;;;;;;;25.40;13.05;;;;;;;21.59;48.68;101926.53;4417143;32;20101;-69
2021/09/22 01:08:01;;;;;;;28.95;12.82;;;;;;;21.40;49.23;101937.31;4416157;32;20102;-69
2021/09/22 01:10:28;;;;;;;26.73;13.75;;;;;;;21.54;49.17;101930.88;4415921;32;20110;-68
2021/09/22 01:12:55;;;;;;;25.25;12.70;;;;;;;21.61;48.88;101924.78;4414930;32;20115;-69
2021/09/22 01:15:38;;;;;;;26.15;13.05;;;;;;;21.63;48.56;101933.69;4415639;32;20054;-69
2021/09/22 01:18:10;;;;;;;22.80;12.48;;;;;;;22.05;47.69;101927.84;4418476;32;20150;-69
2021/09/22 01:20:36;;;;;;;25.12;12.50;;;;;;;21.99;48.10;101926.16;4418139;32;20061;-69
2021/09/22 01:23:05;;;;;;;27.75;12.90;;;;;;;21.74;48.16;101929.50;4414175;32;20126;-69
2021/09/22 01:25:30;;;;;;;26.02;13.48;;;;;;;22.01;47.98;101930.12;4416326;32;20498;-69
2021/09/22 01:27:59;;;;;;;26.23;12.85;;;;;;;21.67;48.34;101925.69;4417235;32;20076;-69
2021/09/22 01:30:26;;;;;;;31.33;13.35;;;;;;;22.03;48.02;101921.03;4415906;32;20111;-69
2021/09/22 01:32:56;;;;;;;28.60;12.73;;;;;;;22.00;47.77;101914.19;4416323;32;20064;-69
2021/09/22 01:35:23;;;;;;;25.85;11.60;;;;;;;22.08;47.65;101917.47;4416162;32;20106;-69
2021/09/22 01:37:49;;;;;;;24.02;12.18;;;;;;;22.01;47.75;101906.38;4418194;32;20077;-69
2021/09/22 01:40:16;;;;;;;24.02;12.00;;;;;;;21.96;47.79;101904.22;4417117;32;20141;-68
2021/09/22 01:42:42;;;;;;;28.65;12.37;;;;;;;21.95;47.85;101900.53;4417366;32;20042;-69
2021/09/22 01:45:11;;;;;;;24.08;10.75;;;;;;;21.88;47.88;101900.12;4417032;32;20464;-68
2021/09/22 01:47:38;;;;;;;23.87;11.50;;;;;;;22.11;47.46;101902.16;4420627;32;20117;-68
2021/09/22 01:50:09;;;;;;;24.73;11.57;;;;;;;21.78;47.71;101902.25;4416015;32;20072;-69
2021/09/22 01:52:36;;;;;;;21.00;11.32;;;;;;;22.05;47.60;101904.09;4417767;32;20593;-69
2021/09/22 01:55:04;;;;;;;25.83;11.82;;;;;;;21.86;47.76;101897.75;4417162;32;20442;-68
2021/09/22 01:57:30;;;;;;;25.12;11.98;;;;;;;21.83;47.70;101892.19;4416213;32;20082;-69
2021/09/22 01:59:56;;;;;;;22.33;10.30;;;;;;;21.68;47.88;101901.50;4416167;32;20119;-68
2021/09/22 02:02:22;;;;;;;28.62;12.00;;;;;;;21.41;49.33;101898.00;4418266;32;20045;-69
2021/09/22 02:04:47;;;;;;;23.50;11.25;;;;;;;21.57;48.04;101894.75;4417802;32;20361;-68
2021/09/22 02:07:13;;;;;;;19.92;10.88;;;;;;;21.69;47.61;101893.69;4418100;32;20037;-69
2021/09/22 02:09:39;;;;;;;20.70;10.65;;;;;;;21.65;47.75;101885.28;4415865;32;20085;-69
2021/09/22 02:12:05;;;;;;;20.83;10.95;;;;;;;21.54;47.79;101893.63;4417531;32;20237;-68
2021/09/22 02:14:31;;;;;;;21.27;10.85;;;;;;;21.48;48.13;101891.94;4413595;32;20107;-69
2021/09/22 02:16:56;;;;;;;26.35;11.90;;;;;;;21.48;48.07;101901.28;4418483;32;20151;-69
2021/09/22 02:19:23;;;;;;;21.37;11.63;;;;;;;21.37;48.46;101889.59;4415537;32;20064;-68
2021/09/22 02:21:49;;;;;;;23.58;11.75;;;;;;;21.33;48.45;101896.78;4414770;32;20049;-69
2021/09/22 02:24:14;;;;;;;23.55;11.57;;;;;;;21.43;48.27;101896.25;4414576;32;20068;-69
2021/09/22 02:26:40;;;;;;;28.77;13.38;;;;;;;21.29;48.43;101899.81;4411213;32;20077;-68
2021/09/22 02:29:06;;;;;;;26.85;11.88;;;;;;;21.29;48.48;101890.44;4414489;32;20642;-69
2021/09/22 02:31:32;;;;;;;23.20;13.55;;;;;;;21.31;48.37;101885.81;4414721;32;20069;-68
2021/09/22 02:33:57;;;;;;;28.20;14.30;;;;;;;21.32;48.58;101883.72;4411819;32;20069;-68
2021/09/22 02:36:23;;;;;;;28.05;14.82;;;;;;;21.25;48.86;101882.03;4415492;32;20038;-68
2021/09/22 02:38:50;;;;;;;24.77;13.68;;;;;;;21.35;48.77;101883.56;4414144;32;20116;-68
2021/09/22 02:41:16;;;;;;;34.25;15.80;;;;;;;21.29;49.21;101876.91;4416247;32;20142;-68
2021/09/22 02:43:41;;;;;;;28.60;16.00;;;;;;;21.27;49.30;101879.47;4415989;32;20527;-68
2021/09/22 02:46:07;;;;;;;30.52;15.85;;;;;;;21.32;49.20;101866.53;4414807;32;20103;-68
2021/09/22 02:48:33;;;;;;;28.27;15.32;;;;;;;21.34;49.25;101864.81;4418965;32;20667;-69
2021/09/22 02:50:59;;;;;;;29.60;15.70;;;;;;;21.51;49.38;101862.31;4420113;32;20465;-68
2021/09/22 02:53:25;;;;;;;31.67;15.90;;;;;;;21.36;49.55;101862.22;4419083;32;20097;-69
2021/09/22 02:55:50;;;;;;;30.70;17.30;;;;;;;21.38;49.59;101859.69;4421751;32;20482;-69
2021/09/22 02:58:16;;;;;;;28.25;15.90;;;;;;;21.40;49.54;101847.75;4417846;32;20081;-69
2021/09/22 03:00:42;;;;;;;25.52;15.43;;;;;;;21.48;49.61;101852.59;4417192;32;20406;-69
2021/09/22 03:03:07;;;;;;;25.67;15.10;;;;;;;21.60;49.54;101848.72;4418223;32;20033;-68
2021/09/22 03:05:33;;;;;;;27.30;15.65;;;;;;;21.61;49.33;101840.91;4420453;32;20148;-69
2021/09/22 03:07:59;;;;;;;27.27;16.15;;;;;;;21.63;49.11;101842.00;4418574;32;20421;-69
2021/09/22 03:10:25;;;;;;;33.60;15.65;;;;;;;21.71;48.99;101833.81;4417837;32;20544;-68
2021/09/22 03:12:52;;;;;;;34.22;15.30;;;;;;;21.76;48.85;101840.97;4419652;32;20430;-69
2021/09/22 03:15:18;;;;;;;28.05;15.82;;;;;;;21.79;48.71;101829.34;4418682;32;20478;-68
2021/09/22 03:17:45;;;;;;;25.15;15.77;;;;;;;21.78;48.80;101829.84;4417356;32;20160;-68
2021/09/22 03:20:11;;;;;;;28.25;16.00;;;;;;;21.78;48.58;101824.88;4418894;32;20099;-69
2021/09/22 03:22:37;;;;;;;27.70;15.07;;;;;;;21.64;48.95;101822.75;4420090;32;20099;-70
2021/09/22 03:25:05;;;;;;;25.70;14.32;;;;;;;21.69;48.78;101819.19;4419848;32;20073;-68
2021/09/22 03:27:31;;;;;;;26.12;13.80;;;;;;;21.94;48.41;101806.44;4420543;32;20405;-68
2021/09/22 03:29:56;;;;;;;19.83;12.57;;;;;;;21.80;48.47;101801.47;4413694;32;20089;-69
2021/09/22 03:32:22;;;;;;;23.70;13.15;;;;;;;21.83;48.60;101807.00;4417284;32;20081;-68
2021/09/22 03:34:47;;;;;;;24.23;12.82;;;;;;;21.94;48.17;101795.78;4418684;32;20085;-68
2021/09/22 03:37:13;;;;;;;23.95;13.05;;;;;;;22.03;47.91;101803.47;4418760;32;20101;-68
2021/09/22 03:39:39;;;;;;;26.20;14.77;;;;;;;22.00;47.96;101804.47;4417822;32;20084;-68
2021/09/22 03:42:04;;;;;;;25.33;13.73;;;;;;;21.92;48.05;101803.25;4417780;32;20501;-68
2021/09/22 03:44:30;;;;;;;27.90;14.02;;;;;;;21.79;48.18;101806.41;4419832;32;20061;-68
2021/09/22 03:46:56;;;;;;;25.58;13.27;;;;;;;21.89;47.94;101810.78;4417232;32;20458;-68
2021/09/22 03:49:22;;;;;;;19.58;11.90;;;;;;;21.79;48.26;101803.56;4417806;32;20030;-68
2021/09/22 03:51:49;;;;;;;25.27;12.75;;;;;;;21.79;48.32;101797.00;4417984;32;20049;-68
2021/09/22 03:54:14;;;;;;;23.52;13.40;;;;;;;21.99;48.00;101802.91;4419042;32;20070;-68
2021/09/22 03:56:40;;;;;;;22.70;13.10;;;;;;;21.93;48.09;101802.78;4418771;32;20432;-68
2021/09/22 03:59:06;;;;;;;16.70;10.45;;;;;;;21.99;47.82;101797.16;4420449;32;20068;-68
2021/09/22 04:01:32;;;;;;;21.08;12.88;;;;;;;21.94;47.97;101800.69;4418051;32;20105;-68
2021/09/22 04:03:57;;;;;;;19.15;12.10;;;;;;;22.10;47.39;101794.50;4422388;32;20071;-68
2021/09/22 04:06:23;;;;;;;21.73;11.07;;;;;;;22.13;47.43;101799.22;4420155;32;20076;-68
2021/09/22 04:08:50;;;;;;;23.48;10.70;;;;;;;22.00;47.56;101799.50;4404107;32;20084;-68
2021/09/22 04:11:16;;;;;;;16.35;7.97;;;;;;;22.10;47.21;101794.50;4416092;32;20084;-68
2021/09/22 04:13:42;;;;;;;15.07;6.87;;;;;;;22.10;47.46;101791.62;4418952;32;20141;-68
2021/09/22 04:16:09;;;;;;;20.10;10.82;;;;;;;22.17;47.15;101808.41;4420647;32;20538;-68
2021/09/22 04:18:36;;;;;;;17.75;8.20;;;;;;;22.24;46.81;101794.50;4416854;32;20529;-68
2021/09/22 04:21:02;;;;;;;20.08;11.73;;;;;;;22.17;46.78;101789.16;4419153;32;20609;-68
2021/09/22 04:23:28;;;;;;;17.55;8.70;;;;;;;22.12;46.60;101792.69;4416037;32;20090;-68
2021/09/22 04:25:54;;;;;;;18.73;10.00;;;;;;;22.12;46.83;101797.66;4416223;32;20033;-68
2021/09/22 04:28:20;;;;;;;21.25;10.82;;;;;;;22.10;46.79;101800.22;4415570;32;20081;-68
2021/09/22 04:30:47;;;;;;;17.92;10.65;;;;;;;21.87;47.20;101798.22;4415274;32;20446;-68
2021/09/22 04:33:12;;;;;;;22.65;11.57;;;;;;;22.10;46.88;101788.75;4416410;32;20539;-68
2021/09/22 04:35:38;;;;;;;23.33;12.13;;;;;;;21.88;46.99;101785.47;4418429;32;20075;-68
2021/09/22 04:38:07;;;;;;;25.15;11.60;;;;;;;21.90;46.67;101792.28;4415971;32;20064;-68
2021/09/22 04:40:34;;;;;;;30.55;11.55;;;;;;;21.74;47.28;101789.87;4417000;32;20085;-68
2021/09/22 04:43:00;;;;;;;21.62;11.15;;;;;;;21.80;47.11;101790.00;4416347;32;20232;-68
2021/09/22 04:45:26;;;;;;;21.48;9.73;;;;;;;21.76;47.05;101792.25;4418179;32;20111;-68
2021/09/22 04:47:54;;;;;;;16.70;9.52;;;;;;;21.41;47.89;101810.00;4419262;32;20414;-68
2021/09/22 04:50:20;;;;;;;18.83;9.82;;;;;;;21.62;47.21;101802.38;4419954;32;20102;-68
2021/09/22 04:52:46;;;;;;;18.27;9.73;;;;;;;21.46;47.59;101800.75;4415149;32;20485;-68
2021/09/22 04:55:12;;;;;;;19.90;9.65;;;;;;;21.42;47.73;101805.88;4420161;32;20045;-68
2021/09/22 04:57:39;;;;;;;18.12;8.48;;;;;;;21.38;47.80;101815.91;4420720;32;20111;-68
2021/09/22 05:00:06;;;;;;;16.00;9.15;;;;;;;21.42;47.79;101813.69;4417691;32;20064;-68
2021/09/22 05:02:32;;;;;;;16.70;9.35;;;;;;;21.17;48.17;101817.03;4416267;32;20320;-68
2021/09/22 05:04:57;;;;;;;19.73;8.95;;;;;;;21.29;47.88;101811.06;4417813;32;20114;-68
2021/09/22 05:07:23;;;;;;;18.87;9.32;;;;;;;21.29;47.89;101802.47;4412387;32;20565;-68
2021/09/22 05:09:49;;;;;;;18.70;8.95;;;;;;;21.17;48.25;101806.34;4417126;32;20054;-68
2021/09/22 05:12:14;;;;;;;16.70;8.45;;;;;;;21.17;48.13;101800.63;4415189;32;20439;-68
2021/09/22 05:14:40;;;;;;;15.93;9.15;;;;;;;21.18;48.00;101799.37;4416685;32;20037;-68
2021/09/22 05:17:07;;;;;;;22.37;10.20;;;;;;;21.17;48.20;101809.22;4417768;32;20037;-68
2021/09/22 05:19:33;;;;;;;18.52;9.30;;;;;;;20.90;48.77;101811.41;4419547;32;20042;-68
2021/09/22 05:21:59;;;;;;;19.10;9.52;;;;;;;21.06;48.41;101794.66;4415318;32;20639;-68
2021/09/22 05:24:25;;;;;;;19.58;10.65;;;;;;;21.11;48.22;101791.12;4415415;32;20108;-68
2021/09/22 05:26:50;;;;;;;22.33;9.20;;;;;;;20.91;48.36;101799.50;4416398;32;20500;-68
2021/09/22 05:29:16;;;;;;;25.92;10.20;;;;;;;20.98;48.21;101798.34;4414631;32;20102;-68
2021/09/22 05:31:43;;;;;;;20.17;12.15;;;;;;;21.01;47.92;101801.06;4418428;32;20428;-68
2021/09/22 05:34:08;;;;;;;22.40;12.65;;;;;;;21.02;47.97;101799.75;4416386;32;20041;-68
2021/09/22 05:36:34;;;;;;;15.65;9.52;;;;;;;21.01;48.28;101803.09;4415103;32;20029;-68
2021/09/22 05:39:00;;;;;;;18.12;10.40;;;;;;;20.52;48.84;101806.31;4417459;32;20124;-67
2021/09/22 05:41:25;;;;;;;20.10;9.45;;;;;;;20.77;48.36;101805.91;4415500;32;20110;-68
2021/09/22 05:43:51;;;;;;;23.15;9.90;;;;;;;20.63;49.02;101797.22;4418102;32;21410;-68
2021/09/22 05:46:17;;;;;;;22.48;10.10;;;;;;;20.73;48.71;101798.78;4415362;32;20146;-68
2021/09/22 05:48:42;;;;;;;19.85;9.93;;;;;;;20.80;48.54;101802.06;4418262;32;20151;-68
2021/09/22 05:51:08;;;;;;;26.25;11.12;;;;;;;20.89;48.29;101793.44;4418339;32;20073;-68
2021/09/22 05:53:34;;;;;;;21.27;12.57;;;;;;;20.90;48.35;101789.28;4414952;32;20245;-68
2021/09/22 05:56:00;;;;;;;22.15;12.85;;;;;;;20.84;48.40;101794.12;4416562;32;20038;-68
2021/09/22 05:58:25;;;;;;;20.55;10.50;;;;;;;20.71;48.36;101790.66;4417528;32;20069;-69
2021/09/22 06:00:52;;;;;;;23.45;10.75;;;;;;;20.81;48.29;101783.66;4417705;32;20417;-68
2021/09/22 06:03:18;;;;;;;21.27;10.95;;;;;;;20.71;48.33;101784.19;4419613;32;20208;-68
2021/09/22 06:05:44;;;;;;;21.23;10.68;;;;;;;20.81;48.62;101786.50;4414538;32;20165;-68
2021/09/22 06:08:09;;;;;;;17.17;10.27;;;;;;;20.77;48.30;101793.69;4413970;32;20077;-68
2021/09/22 06:10:36;;;;;;;23.00;10.95;;;;;;;20.85;48.17;101801.44;4411619;32;20122;-68
2021/09/22 06:13:05;;;;;;;21.12;10.50;;;;;;;20.85;48.20;101804.28;4415201;32;20546;-68
2021/09/22 06:15:31;;;;;;;26.75;10.93;;;;;;;21.13;47.87;101805.75;4415067;32;20073;-68
2021/09/22 06:17:57;;;;;;;26.27;11.32;;;;;;;20.91;48.51;101818.72;4416850;32;20042;-68
2021/09/22 06:20:23;;;;;;;20.30;10.18;;;;;;;21.08;47.96;101817.09;4415778;32;20391;-67
2021/09/22 06:22:48;;;;;;;24.67;11.68;;;;;;;20.90;48.51;101815.06;4417636;32;20103;-67
2021/09/22 06:25:16;;;;;;;19.25;10.88;;;;;;;20.99;48.25;101805.69;4416727;32;20037;-68
2021/09/22 06:27:42;;;;;;;26.60;12.52;;;;;;;21.17;47.92;101811.31;4415592;32;20066;-68
2021/09/22 06:30:09;;;;;;;38.80;11.93;;;;;;;21.30;47.83;101815.50;4412256;32;20049;-67
2021/09/22 06:32:36;;;;;;;37.70;11.45;;;;;;;21.61;47.24;101810.19;4418950;32;20294;-67
2021/09/22 06:35:03;;;;;;;23.75;11.00;;;;;;;21.53;47.00;101808.97;4420339;32;20060;-67
2021/09/22 06:37:29;;;;;;;22.60;9.55;;;;;;;21.67;46.56;101822.53;4408727;32;20074;-68
2021/09/22 06:39:55;;;;;;;20.48;9.30;;;;;;;21.61;46.93;101818.78;4413293;32;20173;-68
2021/09/22 06:42:20;;;;;;;20.42;9.73;;;;;;;21.79;46.76;101819.94;4412980;32;20437;-68
2021/09/22 06:44:47;;;;;;;18.90;9.80;;;;;;;21.85;46.73;101818.78;4411235;32;20069;-67
2021/09/22 06:47:13;;;;;;;24.17;10.23;;;;;;;21.90;46.34;101823.81;4409305;32;20094;-68
2021/09/22 06:49:39;;;;;;;21.95;10.48;;;;;;;22.02;46.42;101825.63;4409182;32;20399;-67
2021/09/22 06:52:04;;;;;;;23.27;11.38;;;;;;;22.05;46.39;101823.84;4408828;32;20080;-68
2021/09/22 06:54:32;;;;;;;24.50;10.95;;;;;;;22.21;46.10;101820.50;4408081;32;20077;-67
2021/09/22 06:56:58;;;;;;;22.48;11.27;;;;;;;22.34;45.92;101821.00;4388966;32;21178;-68
2021/09/22 06:59:24;;;;;;;26.08;11.95;;;;;;;22.29;45.75;101824.56;4412380;32;20081;-68
2021/09/22 07:01:53;;;;;;;27.45;12.93;;;;;;;22.36;45.86;101821.31;4405237;32;20133;-68
2021/09/22 07:04:18;;;;;;;24.65;12.50;;;;;;;22.60;45.66;101822.81;4394093;32;20159;-70
2021/09/22 07:06:44;;;;;;;26.77;12.80;;;;;;;22.77;45.63;101826.72;4406564;32;20651;-68
2021/09/22 07:09:10;;;;;;;24.37;13.95;;;;;;;22.84;45.69;101822.66;4408078;32;20565;-68
2021/09/22 07:11:36;;;;;;;25.08;14.18;;;;;;;22.99;46.05;101832.03;4403537;32;20093;-68
2021/09/22 07:14:02;;;;;;;23.67;13.20;;;;;;;23.17;45.88;101821.06;4400601;32;20072;-68
2021/09/22 07:16:28;;;;;;;28.48;14.77;;;;;;;23.43;45.77;101824.88;4408426;32;20074;-68
2021/09/22 07:18:56;;;;;;;22.08;13.93;;;;;;;23.53;45.59;101832.06;4411248;32;20073;-68
2021/09/22 07:21:23;;;;;;;22.65;12.85;;;;;;;23.73;45.07;101824.72;4405203;32;20069;-68
2021/09/22 07:23:50;;;;;;;21.65;13.32;;;;;;;24.08;44.47;101828.31;4406511;32;20053;-68
2021/09/22 07:26:16;;;;;;;21.15;12.37;;;;;;;24.39;43.90;101834.91;4409927;32;20736;-70
2021/09/22 07:28:42;;;;;;;20.48;12.77;;;;;;;24.45;43.30;101820.56;4407510;32;20054;-70
2021/09/22 07:31:09;;;;;;;23.02;13.73;;;;;;;24.72;42.98;101835.22;4408045;32;20483;-68
2021/09/22 07:33:35;;;;;;;23.30;13.20;;;;;;;24.83;42.77;101832.44;4394228;32;21403;-70
2021/09/22 07:36:04;;;;;;;21.77;12.65;;;;;;;24.87;42.78;101827.25;4407715;32;20477;-69
2021/09/22 07:38:31;;;;;;;22.48;11.57;;;;;;;25.19;42.14;101828.00;4408124;32;20067;-70
2021/09/22 07:40:57;;;;;;;23.60;11.20;;;;;;;25.16;41.95;101829.00;4408015;32;20111;-70
2021/09/22 07:43:23;;;;;;;26.25;11.57;;;;;;;25.29;41.96;101824.38;4411210;32;20073;-68
2021/09/22 07:45:49;;;;;;;21.08;11.05;;;;;;;25.23;41.88;101829.31;4406371;32;20129;-70
2021/09/22 07:48:15;;;;;;;23.95;10.43;;;;;;;25.55;41.36;101823.50;4405942;32;20407;-68
2021/09/22 07:50:40;;;;;;;17.90;10.63;;;;;;;25.60;41.18;101823.50;4406079;32;20552;-69
2021/09/22 07:53:06;;;;;;;17.65;10.18;;;;;;;25.75;41.04;101823.31;4408167;32;20069;-69
2021/09/22 07:55:32;;;;;;;19.65;9.77;;;;;;;25.84;40.71;101823.06;4412130;32;20482;-68
2021/09/22 07:57:58;;;;;;;14.45;8.48;;;;;;;25.80;41.01;101822.53;4410057;32;20085;-69
2021/09/22 08:00:24;;;;;;;18.35;9.45;;;;;;;26.02;40.47;101825.53;4408331;32;20182;-69
2021/09/22 08:02:53;;;;;;;23.77;9.48;;;;;;;26.13;40.56;101826.34;4411951;32;20045;-68
2021/09/22 08:05:21;;;;;;;18.17;9.48;;;;;;;26.25;40.30;101824.25;4410278;32;20085;-68
2021/09/22 08:07:46;;;;;;;14.82;8.68;;;;;;;26.31;39.85;101825.84;4406764;32;20709;-69
2021/09/22 08:10:14;;;;;;;12.88;8.18;;;;;;;26.50;39.56;101824.03;4408283;32;20038;-68
2021/09/22 08:12:41;;;;;;;9.40;6.82;;;;;;;26.77;39.09;101825.38;4411454;32;20045;-69
2021/09/22 08:15:07;;;;;;;13.48;7.12;;;;;;;27.13;38.55;101819.28;4408582;32;20082;-68
2021/09/22 08:17:32;;;;;;;12.40;7.22;;;;;;;27.32;38.00;101824.50;4411033;32;20045;-69
2021/09/22 08:19:58;;;;;;;11.75;6.25;;;;;;;27.30;37.83;101822.16;4411271;32;20113;-69
2021/09/22 08:22:24;;;;;;;9.80;6.00;;;;;;;27.77;36.87;101823.03;4408055;32;20064;-69
2021/09/22 08:24:50;;;;;;;11.10;5.00;;;;;;;28.05;36.62;101818.72;4411661;32;20501;-69
2021/09/22 08:27:15;;;;;;;11.43;5.28;;;;;;;28.12;36.06;101826.03;4409107;32;20489;-69
2021/09/22 08:29:42;;;;;;;9.98;5.28;;;;;;;27.71;36.88;101823.06;4409500;32;20380;-69
2021/09/22 08:32:08;;;;;;;10.75;4.70;;;;;;;28.29;36.12;101829.63;4409000;32;20795;-70
2021/09/22 08:34:34;;;;;;;10.70;5.18;;;;;;;28.76;35.51;101831.13;4409503;32;20085;-69
2021/09/22 08:37:00;;;;;;;10.18;4.47;;;;;;;28.76;35.17;101831.13;4409739;32;20069;-69
2021/09/22 08:39:32;;;;;;;11.27;4.62;;;;;;;28.94;34.75;101822.53;4409536;32;20099;-69
2021/09/22 08:41:58;;;;;;;10.75;4.70;;;;;;;28.71;34.95;101824.03;4406403;32;20049;-69
2021/09/22 08:44:24;;;;;;;8.32;4.85;;;;;;;29.14;34.61;101823.41;4408089;32;20074;-69
2021/09/22 08:46:50;;;;;;;9.57;4.15;;;;;;;29.12;34.51;101823.16;4406743;32;20104;-69
2021/09/22 08:49:16;;;;;;;8.48;3.67;;;;;;;29.50;33.85;101822.72;4405325;32;20129;-69
2021/09/22 08:51:43;;;;;;;8.73;3.85;;;;;;;29.76;33.30;101817.13;4401766;32;21498;-69
2021/09/22 08:54:09;;;;;;;7.95;3.17;;;;;;;30.18;33.10;101816.31;4406670;32;20086;-69
2021/09/22 08:56:37;;;;;;;5.47;2.95;;;;;;;29.81;33.16;101816.28;4406378;32;20511;-70
2021/09/22 08:59:04;;;;;;;7.37;2.80;;;;;;;30.31;32.40;101818.50;4407828;32;20366;-70
2021/09/22 09:01:30;;;;;;;10.23;3.10;;;;;;;30.75;31.72;101817.81;4406693;32;20085;-69
2021/09/22 09:03:56;;;;;;;7.45;3.17;;;;;;;30.81;31.50;101816.34;4404621;32;20155;-70
2021/09/22 09:06:34;;;;;;;7.10;2.83;;;;;;;30.22;32.09;101810.19;4409935;32;20617;-69
2021/09/22 09:09:03;;;;;;;4.78;2.92;;;;;;;31.08;30.83;101822.22;4407050;32;20067;-69
2021/09/22 09:11:34;;;;;;;3.80;2.42;;;;;;;31.30;30.57;101821.84;4411674;32;20149;-69
2021/09/22 09:14:03;;;;;;;6.22;2.60;;;;;;;30.66;31.32;101829.81;4407260;32;20208;-69
2021/09/22 09:19:18;;;;;;;5.43;2.92;;;;;;;29.45;33.12;101834.41;3961417;32;15213836;-70
2021/09/22 09:22:06;;;;;;;4.53;2.37;;;;;;;29.45;33.12;101834.41;4415619;32;20070;-70
2021/09/22 09:24:37;;;;;;;8.30;3.28;;;;;;;29.42;32.69;101820.97;4416129;32;20067;-70
2021/09/22 09:27:09;;;;;;;11.05;4.50;;;;;;;28.79;33.85;101821.34;4414982;32;20034;-70
2021/09/22 09:29:38;;;;;;;9.13;4.50;;;;;;;28.26;34.75;101822.75;4409716;32;20081;-70
2021/09/22 09:32:22;;;;;;;9.73;3.85;;;;;;;28.54;34.50;101831.31;4414805;32;21198;-70
2021/09/22 09:35:07;;;;;;;8.18;2.97;;;;;;;29.11;33.42;101833.19;4418432;32;20140;-70
2021/09/22 09:37:36;;;;;;;9.80;2.37;;;;;;;29.41;32.85;101833.91;4416017;32;20513;-70
2021/09/22 09:45:41;;;;;;;11.02;2.95;;;;;;;29.67;32.20;101829.16;3978813;32;15023146;-70
2021/09/22 09:48:09;;;;;;;7.95;2.58;;;;;;;29.67;32.20;101829.16;4429305;32;20435;-70
2021/09/22 09:50:39;;;;;;;6.78;2.35;;;;;;;29.69;32.40;101832.28;4431048;32;20774;-70
2021/09/22 09:53:05;;;;;;;12.23;3.72;;;;;;;30.60;30.94;101829.13;4426482;32;20081;-70
2021/09/22 09:55:33;;;;;;;5.97;2.05;;;;;;;30.83;30.51;101828.22;4428056;32;20084;-70
2021/09/22 09:58:00;;;;;;;8.25;2.47;;;;;;;31.58;29.55;101824.97;4434056;32;20088;-70
2021/09/22 10:03:20;;;;;;;4.10;2.35;;;;;;;31.82;29.29;101834.28;3972469;32;15022928;-70
2021/09/22 10:05:47;;;;;;;4.03;2.40;;;;;;;31.82;29.29;101834.28;4409806;32;20129;-70
2021/09/22 10:08:15;;;;;;;4.72;2.28;;;;;;;31.33;29.56;101838.97;4412171;32;20088;-70
2021/09/22 10:10:43;;;;;;;2.67;2.00;;;;;;;31.04;29.32;101825.47;4412527;32;20081;-70
2021/09/22 10:13:11;;;;;;;4.57;2.70;;;;;;;30.78;30.00;101837.03;4411549;32;20286;-70
2021/09/22 10:15:40;;;;;;;5.75;2.55;;;;;;;30.66;30.28;101829.81;4412615;32;20125;-69
2021/09/22 10:18:07;;;;;;;3.35;2.70;;;;;;;30.03;31.25;101845.00;4421006;32;20030;-69
2021/09/22 10:20:33;;;;;;;4.80;2.50;;;;;;;29.73;31.83;101824.03;4411993;32;20659;-69
2021/09/22 10:22:59;;;;;;;5.75;2.90;;;;;;;29.95;31.34;101829.56;4415215;32;20105;-69
2021/09/22 10:25:26;;;;;;;4.10;2.42;;;;;;;30.44;30.75;101824.38;4414924;32;20404;-70
2021/09/22 10:27:52;;;;;;;3.42;2.33;;;;;;;29.90;31.34;101823.81;4414367;32;20085;-69
2021/09/22 10:30:31;;;;;;;5.70;2.60;;;;;;;29.57;31.96;101827.13;4417387;32;20649;-69
2021/09/22 10:32:57;;;;;;;7.82;2.42;;;;;;;29.56;32.11;101826.34;4414933;32;20128;-70
2021/09/22 10:41:00;;;;;;;4.20;3.03;;;;;;;29.68;32.84;101813.31;3968055;32;15024191;-70
2021/09/22 10:43:29;;;;;;;4.55;3.28;;;;;;;29.68;32.84;101813.31;4422400;32;20683;-70
2021/09/22 10:48:33;;;;;;;6.50;3.40;;;;;;;29.12;33.81;101811.56;3946939;32;15723493;-70
2021/09/22 10:51:04;;;;;;;7.15;3.65;;;;;;;29.19;33.77;101803.06;4418626;32;20080;-70
2021/09/22 10:58:54;;;;;;;7.45;4.82;;;;;;;29.61;33.25;101805.19;3966632;32;15023867;-70
2021/09/22 11:04:13;;;;;;;20.85;10.32;;;;;;;28.40;36.10;101803.47;3986096;31;15017417;-69
2021/09/22 11:17:22;;;;;;;9.30;5.55;;;;;;;29.28;34.81;101775.78;3954930;32;15022695;-69
2021/09/22 11:19:52;;;;;;;6.57;4.60;;;;;;;29.28;34.81;101775.78;4403919;32;20109;-69
2021/09/22 11:22:20;;;;;;;5.85;5.03;;;;;;;29.46;34.18;101778.75;4405369;32;20142;-69
2021/09/22 11:24:47;;;;;;;6.68;4.43;;;;;;;29.53;33.86;101768.63;4402831;32;20070;-69
2021/09/22 11:27:16;;;;;;;7.95;4.43;;;;;;;30.16;32.89;101778.28;4401020;32;20099;-69
2021/09/22 11:32:36;;;;;;;4.43;2.37;;;;;;;29.62;32.42;101766.16;3969344;32;15022627;-70
2021/09/22 11:37:48;;;;;;;3.20;2.40;;;;;;;29.42;32.81;101757.94;3953895;32;15023143;-70
2021/09/22 11:48:11;;;;;;;5.32;2.08;;;;;;;30.19;31.67;101751.09;3991365;31;15022452;-69
2021/09/22 11:50:42;;;;;;;3.30;1.70;;;;;;;29.14;33.01;101739.34;4443750;32;20342;-68
2021/09/22 11:53:10;;;;;;;3.12;1.83;;;;;;;29.52;32.25;101735.16;4443772;32;20164;-69
2021/09/22 11:55:38;;;;;;;2.42;1.35;;;;;;;29.71;31.97;101730.97;4445610;32;20453;-69
2021/09/22 11:58:07;;;;;;;3.08;1.30;;;;;;;29.78;31.62;101723.72;4445030;32;20116;-69
2021/09/22 12:00:33;;;;;;;2.80;1.60;;;;;;;30.01;31.26;101730.78;4440311;32;20041;-69
2021/09/22 12:02:59;;;;;;;5.85;1.30;;;;;;;29.69;31.72;101722.00;4433138;32;20073;-69
2021/09/22 12:05:26;;;;;;;3.72;1.27;;;;;;;29.97;31.07;101719.47;4446981;32;20083;-69